• Join FlightAware (Why Join?)
  • Login
  • US Flag 
10:29PM EDT


 

Airport Tracker/Info


-or-


 

Live Flight TrackerFlight Track Log ✈ FDX1570 ✈ 08-May-2013 ✈ KMEM - KALB

Flight Track Log - Related Links

Times and Time Zones

All times are in EDT time to prevent confusion due to time zone crossing. See the FDX1570 flight status page for this flight to view local times or setup timezone preferences in your user account.

Time Position Orientation Groundspeed Altitude Reporting Facility
EDT Latitude Longitude Course Direction KTS MPH feet Rate Location/Type
04:15AM 35.0167 -89.9667 180° South 169 194 1,000  Level KMEM
04:16AM 35.0000 -89.9667 180° South 171 197 2,200 2,040 Climbing KMEM
04:17AM 34.9333 -89.9500 168° South 261 300 4,100 2,460 Climbing KMEM
04:18AM 34.9167 -89.8500 101° East 276 318 7,300 2,940 Climbing KMEM
04:18AM 34.9497 -89.7947 54° Northeast 278 320 9,300 2,520 Climbing Memphis Center
04:19AM 34.9911 -89.7108 59° Northeast 347 399 11,500 1,740 Climbing Memphis Center
04:20AM 35.0342 -89.5989 65° Northeast 347 399 12,800 1,800 Climbing Memphis Center
04:21AM 35.0878 -89.4817 61° Northeast 365 420 15,100 2,100 Climbing Memphis Center
04:22AM 35.1431 -89.3592 61° Northeast 400 460 17,000 1,860 Climbing Memphis Center
04:23AM 35.2003 -89.2289 62° Northeast 421 484 18,900 1,740 Climbing Memphis Center
04:24AM 35.2514 -89.1164 61° Northeast 421 484 20,500 1,020 Climbing Memphis Center
04:25AM 35.3189 -88.9881 57° Northeast 436 502 21,000 300 Climbing Memphis Center
04:26AM 35.3842 -88.8597 58° Northeast 436 502 21,100 1,080 Climbing Memphis Center
04:33AM 35.8270 -87.9930 58° Northeast 482 555 29,100 1,320 Climbing FlightAware
04:34AM 35.8780 -87.8930 58° Northeast 478 550 30,600 1,860 Climbing FlightAware
04:34AM 35.9240 -87.8030 58° Northeast 476 548 31,800 1,860 Climbing FlightAware
04:35AM 35.9710 -87.7090 58° Northeast 472 543 33,100 1,920 Climbing FlightAware
04:36AM 36.0230 -87.6040 58° Northeast 463 533 34,600 1,800 Climbing FlightAware
04:36AM 36.0680 -87.5120 59° Northeast 460 529 35,700 1,260 Climbing FlightAware
04:37AM 36.1170 -87.4150 58° Northeast 466 536 36,400 900 Climbing FlightAware
04:38AM 36.1630 -87.3210 59° Northeast 470 541 37,000 420 Climbing FlightAware
04:38AM 36.2070 -87.2320 58° Northeast 465 535 37,000  Level FlightAware
04:39AM 36.2520 -87.1410 58° Northeast 469 540 37,000  Level FlightAware
04:40AM 36.3050 -87.0320 59° Northeast 472 543 37,000  Level FlightAware
04:40AM 36.3500 -86.9420 58° Northeast 474 545 37,000  Level FlightAware
04:41AM 36.4000 -86.8390 59° Northeast 475 547 37,000  Level FlightAware
04:42AM 36.4460 -86.7440 59° Northeast 475 547 37,000  Level FlightAware
04:43AM 36.4970 -86.6380 59° Northeast 475 547 37,000  Level FlightAware
04:43AM 36.5420 -86.5450 59° Northeast 476 548 37,000  Level FlightAware
04:43AM 36.5489 -86.5305 59° Northeast 477 549 37,000  Level FlightAware ADS-B
04:44AM 36.5863 -86.4528 59° Northeast 478 550 37,000  Level FlightAware ADS-B
04:45AM 36.6390 -86.3440 59° Northeast 477 549 37,000  Level FlightAware
04:45AM 36.6760 -86.2670 59° Northeast 473 544 37,000  Level FlightAware
04:46AM 36.7215 -86.1715 59° Northeast 470 541 37,000  Level FlightAware ADS-B
04:46AM 36.7555 -86.1002 59° Northeast 462 532 37,000  Level FlightAware ADS-B
04:47AM 36.7929 -86.0207 60° Northeast 456 525 37,000  Level FlightAware ADS-B
04:48AM 36.8258 -85.9531 59° Northeast 453 521 37,000  Level FlightAware ADS-B
04:48AM 36.8579 -85.8835 60° Northeast 451 519 37,000  Level FlightAware ADS-B
04:49AM 36.8904 -85.8165 59° Northeast 449 517 37,000  Level FlightAware ADS-B
04:49AM 36.9247 -85.7430 60° Northeast 447 514 37,000  Level FlightAware ADS-B
04:50AM 36.9644 -85.6584 60° Northeast 446 513 37,000  Level FlightAware ADS-B
04:50AM 36.9990 -85.5850 59° Northeast 445 512 37,000  Level FlightAware
04:51AM 37.0195 -85.5407 60° Northeast 445 512 37,000  Level FlightAware ADS-B
04:51AM 37.0515 -85.4721 60° Northeast 445 512 37,000  Level FlightAware ADS-B
04:52AM 37.0827 -85.4053 60° Northeast 445 512 37,000  Level FlightAware ADS-B
04:52AM 37.1280 -85.3070 60° Northeast 445 512 37,000  Level FlightAware
04:53AM 37.1654 -85.2294 59° Northeast 446 513 37,000  Level FlightAware ADS-B
04:53AM 37.1965 -85.1599 61° Northeast 446 513 37,000  Level FlightAware ADS-B
04:54AM 37.2289 -85.0905 60° Northeast 447 514 37,000  Level FlightAware ADS-B
04:54AM 37.2606 -85.0231 59° Northeast 449 517 37,000  Level FlightAware ADS-B
04:55AM 37.2762 -84.9896 60° Northeast 449 517 37,000  Level FlightAware ADS-B
04:55AM 37.3070 -84.9280 58° Northeast 449 517 37,000  Level FlightAware
04:55AM 37.3128 -84.9196 49° Northeast 450 518 37,000  Level FlightAware ADS-B
04:56AM 37.3488 -84.8532 56° Northeast 451 519 37,000  Level FlightAware ADS-B
04:57AM 37.4110 -84.7460 54° Northeast 454 522 37,000  Level FlightAware
04:57AM 37.4161 -84.7380 51° Northeast 455 524 37,000  Level FlightAware ADS-B
04:57AM 37.4542 -84.6716 54° Northeast 456 525 37,000  Level FlightAware ADS-B
04:58AM 37.5080 -84.5790 54° Northeast 456 525 37,000  Level FlightAware
04:58AM 37.5251 -84.5488 54° Northeast 458 527 37,000  Level FlightAware ADS-B
04:59AM 37.5631 -84.4817 54° Northeast 459 528 37,000  Level FlightAware ADS-B
04:59AM 37.6090 -84.4011 54° Northeast 460 529 37,000  Level FlightAware ADS-B
05:00AM 37.6463 -84.3355 54° Northeast 462 532 37,000  Level FlightAware ADS-B
05:00AM 37.6860 -84.2654 54° Northeast 460 529 37,000  Level FlightAware ADS-B
05:01AM 37.7252 -84.1955 55° Northeast 458 527 37,000  Level FlightAware ADS-B
05:01AM 37.7626 -84.1301 54° Northeast 458 527 37,000  Level FlightAware ADS-B
05:02AM 37.8004 -84.0625 55° Northeast 458 527 37,000  Level FlightAware ADS-B
05:03AM 37.8700 -83.9400 54° Northeast 460 529 37,000  Level FlightAware
05:04AM 37.9260 -83.8390 55° Northeast 458 527 37,000  Level FlightAware
05:04AM 37.9780 -83.7450 55° Northeast 454 522 37,000  Level FlightAware
05:05AM 38.0420 -83.6310 54° Northeast 453 521 37,000  Level FlightAware
05:06AM 38.0840 -83.5580 54° Northeast 453 521 37,000  Level FlightAware
05:07AM 38.1260 -83.4840 54° Northeast 453 521 37,000  Level FlightAware
05:07AM 38.1930 -83.3590 56° Northeast 451 519 37,000  Level FlightAware
05:08AM 38.2370 -83.2770 56° Northeast 450 518 37,000  Level FlightAware
05:09AM 38.2780 -83.2040 54° Northeast 450 518 37,000  Level FlightAware
05:09AM 38.3190 -83.1300 55° Northeast 450 518 37,000  Level FlightAware
05:10AM 38.3690 -83.0370 56° Northeast 450 518 37,000  Level FlightAware
05:11AM 38.4100 -82.9630 55° Northeast 450 518 37,000  Level FlightAware
05:12AM 38.4950 -82.8050 55° Northeast 442 509 37,000  Level FlightAware
05:12AM 38.5540 -82.6940 56° Northeast 441 507 37,000  Level FlightAware
05:13AM 38.6090 -82.5920 55° Northeast 444 511 37,000  Level FlightAware
05:14AM 38.6570 -82.5030 55° Northeast 448 516 37,000  Level FlightAware
05:15AM 38.7030 -82.4170 56° Northeast 451 519 37,000  Level FlightAware
05:15AM 38.7560 -82.3180 56° Northeast 452 520 37,000  Level FlightAware
05:16AM 38.8040 -82.2290 55° Northeast 454 522 37,000  Level FlightAware
05:17AM 38.8570 -82.1270 56° Northeast 455 524 37,000  Level FlightAware
05:17AM 38.9000 -82.0460 56° Northeast 455 524 37,000  Level FlightAware
05:18AM 38.9510 -81.9500 56° Northeast 455 524 37,000  Level FlightAware
05:19AM 39.0060 -81.8440 56° Northeast 454 522 37,000  Level FlightAware
05:19AM 39.0530 -81.7570 55° Northeast 452 520 37,000  Level FlightAware
05:20AM 39.1000 -81.6660 56° Northeast 451 519 37,000  Level FlightAware
05:21AM 39.1470 -81.5750 56° Northeast 449 517 37,000  Level FlightAware
05:22AM 39.1960 -81.4810 56° Northeast 448 516 37,000  Level FlightAware
05:22AM 39.2490 -81.3790 56° Northeast 449 517 37,000  Level FlightAware
05:23AM 39.2950 -81.2900 56° Northeast 450 518 37,000  Level FlightAware
05:24AM 39.3410 -81.2010 56° Northeast 450 518 37,000  Level FlightAware
05:24AM 39.3930 -81.1020 56° Northeast 449 517 37,000  Level FlightAware
05:25AM 39.4370 -81.0150 57° Northeast 449 517 37,000  Level FlightAware
05:26AM 39.4900 -80.9090 57° Northeast 449 517 37,000  Level FlightAware
05:26AM 39.5360 -80.8190 56° Northeast 449 517 37,000  Level FlightAware
05:27AM 39.5810 -80.7320 56° Northeast 449 517 37,000  Level FlightAware
05:28AM 39.6340 -80.6260 57° Northeast 449 517 37,000  Level FlightAware
05:29AM 39.6800 -80.5360 56° Northeast 450 518 37,000  Level FlightAware
05:29AM 39.7300 -80.4360 57° Northeast 450 518 37,000  Level FlightAware
05:30AM 39.6650 -80.5650 237° Southwest 37,000  Level FlightAware
05:31AM 39.8130 -80.2700 57° Northeast 454 522 37,000  Level FlightAware
05:31AM 39.8610 -80.1740 57° Northeast 457 526 37,000  Level FlightAware
05:32AM 39.9150 -80.0650 57° Northeast 458 527 37,000  Level FlightAware
05:33AM 39.9630 -79.9680 57° Northeast 458 527 37,000  Level FlightAware
05:33AM 40.0150 -79.8630 57° Northeast 459 528 37,000  Level FlightAware
05:34AM 40.0610 -79.7700 57° Northeast 460 529 37,000  Level FlightAware
05:35AM 40.1070 -79.6760 57° Northeast 460 529 37,000  Level FlightAware
05:36AM 40.1580 -79.5730 57° Northeast 457 526 37,000  Level FlightAware
05:36AM 40.2040 -79.4780 58° Northeast 456 525 37,000  Level FlightAware
05:37AM 40.2550 -79.3730 58° Northeast 455 524 37,000  Level FlightAware
05:38AM 40.3000 -79.2800 58° Northeast 454 522 37,000  Level FlightAware
05:39AM 40.3610 -79.1530 58° Northeast 451 519 37,000  Level FlightAware
05:39AM 40.4120 -79.0490 57° Northeast 451 519 37,000  Level FlightAware
05:40AM 40.4560 -78.9560 58° Northeast 451 519 37,000  Level FlightAware
05:41AM 40.5010 -78.8630 58° Northeast 451 519 37,000  Level FlightAware
05:41AM 40.5500 -78.7590 58° Northeast 452 520 37,000  Level FlightAware
05:42AM 40.5860 -78.6840 58° Northeast 452 520 37,000  Level FlightAware
05:43AM 40.6380 -78.5750 58° Northeast 452 520 37,000  Level FlightAware
05:43AM 40.6803 -78.4857 58° Northeast 453 521 37,000  Level FlightAware ADS-B
05:44AM 40.7270 -78.3850 59° Northeast 453 521 37,000  Level FlightAware
05:44AM 40.7592 -78.3167 58° Northeast 453 521 37,000  Level FlightAware ADS-B
05:46AM 40.8210 -78.1850 58° Northeast 455 524 37,000  Level FlightAware
05:46AM 40.8700 -78.0780 59° Northeast 453 521 37,000  Level FlightAware
05:47AM 40.9130 -77.9900 57° Northeast 453 521 37,000  Level FlightAware
05:48AM 40.9640 -77.8970 54° Northeast 452 520 37,000  Level FlightAware
05:48AM 41.0210 -77.8010 52° Northeast 452 520 37,000 -120 Level FlightAware
05:49AM 41.0730 -77.7120 52° Northeast 450 518 36,900 -600 Descending FlightAware
05:49AM 41.1114 -77.6471 52° Northeast 452 520 36,400 -1,380 Descending FlightAware ADS-B
05:50AM 41.1539 -77.5768 51° Northeast 455 524 35,700 -1,140 Descending FlightAware ADS-B
05:51AM 41.2015 -77.4951 52° Northeast 453 521 35,100 -1,500 Descending FlightAware ADS-B
05:51AM 41.2522 -77.4078 52° Northeast 453 521 33,800 -1,800 Descending FlightAware ADS-B
05:52AM 41.2890 -77.3440 52° Northeast 431 496 32,800 -1,980 Descending FlightAware
05:52AM 41.3404 -77.2551 52° Northeast 453 521 31,400 -2,280 Descending FlightAware ADS-B
05:53AM 41.3792 -77.1866 53° Northeast 424 488 30,300 -1,620 Descending FlightAware ADS-B
05:54AM 41.4410 -77.0790 53° Northeast 441 507 29,000 -840 Descending FlightAware
05:55AM 41.4910 -76.9930 52° Northeast 451 519 29,000  Level FlightAware
05:55AM 41.5469 -76.8950 53° Northeast 457 526 29,000 -240 Level FlightAware ADS-B
05:56AM 41.5990 -76.8030 53° Northeast 454 522 28,700 -840 Descending FlightAware
05:57AM 41.6619 -76.6931 53° Northeast 455 524 27,800 -1,140 Descending FlightAware ADS-B
05:57AM 41.7080 -76.6110 53° Northeast 462 532 27,100 -1,260 Descending FlightAware
05:58AM 41.7427 -76.5491 53° Northeast 468 539 26,500 -1,560 Descending FlightAware ADS-B
05:58AM 41.7820 -76.4820 52° Northeast 472 543 25,700 -2,160 Descending FlightAware
05:59AM 41.8187 -76.4155 53° Northeast 479 551 24,500 -1,020 Descending FlightAware ADS-B
06:00AM 41.9160 -76.2420 53° Northeast 477 549 24,000 -240 Descending FlightAware
06:01AM 41.9830 -76.1230 53° Northeast 457 526 24,000  Level FlightAware
06:02AM 42.0270 -76.0450 53° Northeast 457 526 24,000  Level FlightAware
06:02AM 42.0700 -75.9670 53° Northeast 457 526 24,000  Level FlightAware
06:03AM 42.1240 -75.8710 53° Northeast 457 526 24,000  Level FlightAware
06:04AM 42.1670 -75.7930 53° Northeast 457 526 24,000  Level FlightAware
06:04AM 42.2260 -75.6300 64° Northeast 443 510 24,000  Level FlightAware
06:05AM 42.2640 -75.5020 68° East 442 509 24,000  Level FlightAware
06:06AM 42.2930 -75.3990 69° East 444 511 24,000 -1,020 Level FlightAware
06:07AM 42.3320 -75.2590 69° East 440 506 22,400 -1,080 Descending FlightAware
06:07AM 42.3560 -75.1760 69° East 440 506 22,400  Level FlightAware
06:08AM 42.3870 -75.0670 69° East 440 506 22,400  Level FlightAware
06:09AM 42.4120 -74.9790 69° East 440 506 22,400  Level FlightAware
06:10AM 42.4360 -74.8920 69° East 440 506 22,400  Level FlightAware
06:10AM 42.4670 -74.7820 69° East 440 506 22,400 -8,520 Level FlightAware
06:11AM 42.4931 -74.6786 69° East 376 433 11,500 -11,340 Descending Boston Center
06:11AM 42.5131 -74.6117 68° East 366 421 11,300 -420 Descending Boston Center
06:12AM 42.5267 -74.5586 71° East 301 346 11,100 -300 Descending Boston Center
06:12AM 42.5422 -74.5056 68° East 322 371 11,000 -900 Descending Boston Center
06:13AM 42.5533 -74.4611 71° East 271 312 10,200 -1,740 Descending Boston Center
06:13AM 42.5689 -74.4050 69° East 281 323 9,300 -1,500 Descending Boston Center
06:14AM 42.5822 -74.3603 68° East 278 320 8,700 -1,200 Descending Boston Center
06:14AM 42.5956 -74.3100 70° East 275 316 8,100 -1,320 Descending Boston Center
06:15AM 42.6086 -74.2653 68° East 276 318 7,400 -1,500 Descending Boston Center
06:15AM 42.6219 -74.2150 70° East 264 304 6,600 -1,380 Descending Boston Center
06:16AM 42.6353 -74.1672 69° East 267 307 6,000 -1,320 Descending Boston Center
06:16AM 42.6589 -74.1283 50° Northeast 264 304 5,300 -1,500 Descending Boston Center
06:17AM 42.6883 -74.0953 40° Northeast 277 319 4,500 -1,200 Descending Boston Center
06:17AM 42.7117 -74.0678 41° Northeast 264 304 4,100 -540 Descending Boston Center
06:18AM 42.7458 -74.0261 42° Northeast 274 315 4,000 -240 Descending Boston Center
06:18AM 42.7669 -74.0014 41° Northeast 264 304 3,900 -840 Descending Boston Center
06:19AM 42.8008 -73.9597 42° Northeast 265 305 3,200 -1,200 Descending Boston Center
06:19AM 42.8242 -73.9347 38° Northeast 264 304 2,700 -720 Descending Boston Center
06:20AM 42.8539 -73.8931 46° Northeast 251 289 2,500 -240 Descending Boston Center
06:20AM 42.8811 -73.8653 37° Northeast 264 304 2,500 -600 Level Boston Center
06:21AM 42.8528 -73.8164 128° Southeast 188 216 1,900 -780 Descending Boston Center
06:22AM 42.8131 -73.8100 173° South 124 143 1,300 -600 Descending Boston Center
06:23AM 42.7778 -73.8092 179° South 117 135 700 -600 Descending Boston Center
06:26AM 42.7491 -73.8020 165° South  Level Estimated